createdAt,value
2022-11-22T00:01:22.726Z,13.00
2022-11-22T00:03:51.529Z,11.97
2022-11-22T00:06:20.542Z,11.30
2022-11-22T00:08:52.040Z,13.33
2022-11-22T00:11:19.927Z,12.93
2022-11-22T00:13:47.950Z,12.50
2022-11-22T00:16:16.444Z,13.27
2022-11-22T00:18:44.653Z,11.87
2022-11-22T00:21:12.047Z,13.20
2022-11-22T00:23:39.968Z,8.40
2022-11-22T00:26:12.331Z,12.57
2022-11-22T00:28:40.331Z,14.43
2022-11-22T00:31:08.872Z,12.20
2022-11-22T00:33:36.328Z,13.73
2022-11-22T00:36:03.943Z,12.57
2022-11-22T00:38:32.026Z,13.70
2022-11-22T00:41:00.270Z,12.63
2022-11-22T00:43:29.145Z,13.93
2022-11-22T00:45:58.667Z,15.83
2022-11-22T00:48:26.833Z,12.13
2022-11-22T00:50:54.478Z,15.00
2022-11-22T00:53:23.898Z,13.73
2022-11-22T00:55:51.817Z,13.70
2022-11-22T00:58:21.320Z,14.20
2022-11-22T01:00:56.284Z,13.80
2022-11-22T01:03:24.780Z,14.87
2022-11-22T01:05:53.795Z,15.10
2022-11-22T01:08:21.514Z,14.07
2022-11-22T01:10:49.400Z,13.87
2022-11-22T01:13:17.304Z,14.60
2022-11-22T01:15:45.835Z,14.83
2022-11-22T01:18:13.506Z,12.37
2022-11-22T01:20:41.624Z,13.53
2022-11-22T01:23:10.166Z,14.90
2022-11-22T01:25:38.134Z,14.77
2022-11-22T01:28:06.041Z,13.80
2022-11-22T01:30:34.231Z,15.33
2022-11-22T01:33:02.980Z,14.37
2022-11-22T01:35:30.822Z,14.67
2022-11-22T01:37:58.500Z,14.27
2022-11-22T01:40:28.161Z,15.53
2022-11-22T01:43:00.589Z,15.27
2022-11-22T01:45:34.549Z,13.37
2022-11-22T01:48:08.661Z,13.97
2022-11-22T01:50:40.602Z,14.20
2022-11-22T01:53:14.847Z,14.87
2022-11-22T01:55:43.634Z,13.77
2022-11-22T01:58:16.961Z,14.93
2022-11-22T02:00:52.554Z,14.33
2022-11-22T02:03:22.971Z,11.70
2022-11-22T02:05:52.792Z,10.97
2022-11-22T02:08:33.671Z,13.47
2022-11-22T02:11:05.219Z,15.27
2022-11-22T02:13:38.466Z,13.80
2022-11-22T02:16:08.039Z,13.33
2022-11-22T02:18:38.820Z,12.77
2022-11-22T02:21:07.679Z,13.73
2022-11-22T02:23:46.080Z,12.63
2022-11-22T02:26:15.333Z,13.20
2022-11-22T02:28:43.735Z,13.67
2022-11-22T02:31:44.954Z,12.77
2022-11-22T02:34:13.332Z,14.43
2022-11-22T02:36:53.261Z,13.93
2022-11-22T02:39:27.839Z,13.43
2022-11-22T02:41:57.848Z,11.63
2022-11-22T02:44:26.119Z,13.17
2022-11-22T02:46:56.186Z,13.03
2022-11-22T02:49:25.745Z,12.60
2022-11-22T02:51:53.687Z,13.53
2022-11-22T02:54:21.964Z,11.77
2022-11-22T02:56:49.978Z,12.30
2022-11-22T02:59:18.111Z,12.07
2022-11-22T03:01:48.899Z,12.97
2022-11-22T03:04:25.321Z,13.57
2022-11-22T03:09:35.865Z,12.50
2022-11-22T03:12:04.642Z,13.07
2022-11-22T03:14:33.399Z,11.97
2022-11-22T03:17:00.874Z,12.77
2022-11-22T03:19:28.857Z,12.90
2022-11-22T03:21:55.971Z,12.70
2022-11-22T03:24:23.722Z,11.10
2022-11-22T03:26:51.600Z,12.07
2022-11-22T03:29:21.860Z,11.57
2022-11-22T03:31:50.531Z,12.43
2022-11-22T03:34:18.542Z,12.43
2022-11-22T03:36:45.878Z,11.03
2022-11-22T03:39:13.687Z,13.10
2022-11-22T03:41:40.829Z,12.37
2022-11-22T03:44:07.998Z,11.77
2022-11-22T03:46:35.490Z,12.90
2022-11-22T03:49:03.002Z,13.33
2022-11-22T03:51:30.609Z,12.83
2022-11-22T03:53:58.207Z,13.73
2022-11-22T03:56:25.379Z,13.87
2022-11-22T03:58:52.770Z,13.40
2022-11-22T04:01:20.722Z,14.07
2022-11-22T04:03:48.100Z,13.20
2022-11-22T04:06:15.706Z,14.03
2022-11-22T04:08:44.716Z,13.50
2022-11-22T04:11:13.185Z,13.40
2022-11-22T04:14:00.404Z,12.93
2022-11-22T04:16:28.431Z,13.07
2022-11-22T04:18:55.683Z,13.20
2022-11-22T04:21:34.977Z,12.87
2022-11-22T04:24:28.973Z,12.80
2022-11-22T04:26:57.010Z,12.40
2022-11-22T04:29:24.901Z,12.47
2022-11-22T04:32:10.917Z,12.17
2022-11-22T04:34:38.539Z,12.23
2022-11-22T04:37:06.743Z,12.87
2022-11-22T04:39:34.080Z,12.83
2022-11-22T04:42:19.570Z,12.73
2022-11-22T04:44:47.175Z,12.13
2022-11-22T04:47:35.121Z,11.67
2022-11-22T04:50:04.216Z,12.93
2022-11-22T04:52:49.726Z,11.07
2022-11-22T04:55:16.708Z,12.23
2022-11-22T04:57:43.791Z,12.77
2022-11-22T05:00:11.458Z,12.73
2022-11-22T05:02:38.980Z,12.60
2022-11-22T05:05:06.550Z,12.07
2022-11-22T05:07:34.519Z,12.80
2022-11-22T05:10:01.949Z,12.57
2022-11-22T05:12:30.513Z,13.50
2022-11-22T05:14:57.741Z,12.47
2022-11-22T05:17:26.309Z,12.87
2022-11-22T05:19:55.515Z,13.07
2022-11-22T05:22:42.993Z,13.23
2022-11-22T05:25:10.231Z,12.33
2022-11-22T05:27:37.553Z,12.83
2022-11-22T05:30:07.519Z,13.70
2022-11-22T05:32:38.597Z,13.93
2022-11-22T05:35:06.636Z,11.73
2022-11-22T05:40:55.458Z,13.37
2022-11-22T05:43:26.428Z,12.57
2022-11-22T05:45:55.901Z,13.67
2022-11-22T05:48:24.931Z,12.60
2022-11-22T05:50:53.634Z,14.47
2022-11-22T05:53:23.378Z,13.00
2022-11-22T05:55:51.984Z,13.40
2022-11-22T05:58:20.959Z,14.37
2022-11-22T06:00:48.941Z,14.53
2022-11-22T06:03:16.439Z,14.07
2022-11-22T06:05:51.291Z,13.57
2022-11-22T06:08:20.929Z,12.57
2022-11-22T06:10:49.138Z,13.40
2022-11-22T06:13:16.926Z,12.93
2022-11-22T06:15:45.570Z,13.60
2022-11-22T06:18:13.668Z,13.10
2022-11-22T06:20:44.502Z,13.63
2022-11-22T06:23:13.040Z,12.20
2022-11-22T06:25:42.576Z,12.87
2022-11-22T06:28:11.394Z,13.40
2022-11-22T06:30:42.084Z,13.57
2022-11-22T06:33:10.519Z,13.63
2022-11-22T06:35:42.175Z,13.90
2022-11-22T06:38:11.167Z,11.50
2022-11-22T06:40:38.946Z,13.80
2022-11-22T06:43:06.772Z,12.70
2022-11-22T06:45:36.307Z,13.23
2022-11-22T06:48:06.724Z,11.77
2022-11-22T06:50:35.848Z,12.77
2022-11-22T06:53:03.907Z,12.87
2022-11-22T06:55:49.624Z,13.17
2022-11-22T07:01:51.958Z,11.97
2022-11-22T07:04:20.661Z,12.97
2022-11-22T07:06:50.468Z,12.30
2022-11-22T07:09:18.442Z,13.13
2022-11-22T07:11:46.971Z,12.67
2022-11-22T07:14:14.889Z,13.57
2022-11-22T07:16:47.529Z,13.47
2022-11-22T07:19:16.005Z,12.20
2022-11-22T07:21:43.879Z,13.03
2022-11-22T07:24:12.123Z,13.50
2022-11-22T07:26:41.032Z,13.57
2022-11-22T07:29:09.815Z,14.00
2022-11-22T07:31:37.420Z,12.63
2022-11-22T07:34:07.689Z,14.07
2022-11-22T07:36:35.967Z,14.37
2022-11-22T07:39:04.079Z,13.57
2022-11-22T07:41:32.936Z,14.87
2022-11-22T07:44:00.380Z,14.93
2022-11-22T07:46:32.273Z,14.30
2022-11-22T07:49:00.676Z,14.70
2022-11-22T07:51:28.467Z,13.93
2022-11-22T07:53:56.760Z,14.47
2022-11-22T07:56:24.498Z,14.33
2022-11-22T07:58:52.493Z,15.00
2022-11-22T08:01:20.700Z,15.67
2022-11-22T08:03:47.989Z,14.97
2022-11-22T08:06:16.692Z,16.63
2022-11-22T08:08:44.219Z,15.43
2022-11-22T08:11:12.387Z,15.70
2022-11-22T08:13:40.088Z,16.13
2022-11-22T08:16:09.922Z,15.63
2022-11-22T08:18:38.335Z,15.07
2022-11-22T08:21:10.931Z,15.10
2022-11-22T08:23:38.474Z,14.37
2022-11-22T08:26:06.588Z,14.97
2022-11-22T08:28:34.073Z,14.30
2022-11-22T08:31:10.674Z,15.67
2022-11-22T08:33:38.372Z,17.50
2022-11-22T08:36:05.942Z,16.53
2022-11-22T08:38:33.608Z,16.87
2022-11-22T08:41:00.887Z,16.60
2022-11-22T08:43:32.953Z,16.23
2022-11-22T08:46:03.011Z,15.77
2022-11-22T08:48:32.650Z,16.37
2022-11-22T08:51:04.766Z,14.90
2022-11-22T08:53:39.834Z,16.33
2022-11-22T08:56:09.915Z,16.03
2022-11-22T08:58:37.495Z,16.50
2022-11-22T09:01:18.714Z,17.00
2022-11-22T09:03:47.430Z,15.77
2022-11-22T09:12:00.903Z,16.37
2022-11-22T09:14:29.523Z,17.10
2022-11-22T09:16:57.345Z,17.27
2022-11-22T09:19:25.278Z,16.87
2022-11-22T09:21:52.932Z,15.73
2022-11-22T09:24:20.269Z,16.27
2022-11-22T09:26:47.806Z,16.53
2022-11-22T09:29:16.048Z,17.27
2022-11-22T09:31:43.716Z,18.03
2022-11-22T09:34:10.711Z,16.93
2022-11-22T09:36:37.811Z,17.97
2022-11-22T09:39:04.883Z,16.70
2022-11-22T09:41:52.866Z,15.57
2022-11-22T09:44:28.533Z,16.97
2022-11-22T09:47:04.469Z,17.33
2022-11-22T09:49:43.569Z,16.00
2022-11-22T09:52:17.638Z,16.23
2022-11-22T09:54:52.381Z,15.83
2022-11-22T09:57:25.395Z,14.93
2022-11-22T10:00:02.876Z,17.03
2022-11-22T10:02:59.410Z,16.60
2022-11-22T10:05:35.352Z,16.00
2022-11-22T10:08:34.119Z,16.43
2022-11-22T10:11:04.464Z,15.37
2022-11-22T10:13:38.741Z,13.80
2022-11-22T10:16:26.386Z,16.67
2022-11-22T10:19:25.034Z,15.87
2022-11-22T10:21:52.904Z,18.83
2022-11-22T10:24:20.653Z,17.30
2022-11-22T10:26:47.952Z,19.73
2022-11-22T10:29:27.095Z,14.77
2022-11-22T10:32:15.115Z,18.53
2022-11-22T10:35:22.592Z,18.23
2022-11-22T10:38:22.600Z,14.87
2022-11-22T10:41:17.603Z,16.13
2022-11-22T10:44:02.836Z,14.43
2022-11-22T10:46:59.770Z,16.00
2022-11-22T10:50:03.560Z,16.07
2022-11-22T10:52:44.495Z,15.93
2022-11-22T10:55:37.868Z,17.23
2022-11-22T10:58:12.010Z,16.37
2022-11-22T11:00:44.719Z,14.93
2022-11-22T11:03:28.803Z,18.27
2022-11-22T11:11:52.015Z,16.37
2022-11-22T11:14:28.200Z,15.00
2022-11-22T11:17:00.352Z,16.40
2022-11-22T11:19:33.128Z,14.33
2022-11-22T11:22:50.297Z,17.13
2022-11-22T11:25:30.820Z,18.33
2022-11-22T11:28:03.368Z,16.23
2022-11-22T11:30:39.481Z,16.33
2022-11-22T11:33:21.312Z,20.10
2022-11-22T11:35:48.677Z,19.10
2022-11-22T11:38:30.889Z,19.63
2022-11-22T11:41:01.119Z,18.10
2022-11-22T11:43:30.109Z,18.17
2022-11-22T11:46:25.152Z,19.17
2022-11-22T11:49:08.841Z,17.13
2022-11-22T11:52:00.358Z,17.53
2022-11-22T11:54:35.429Z,15.73
2022-11-22T11:57:07.891Z,17.23
2022-11-22T11:59:38.003Z,16.40
2022-11-22T12:02:14.013Z,16.57
2022-11-22T12:05:03.908Z,16.53
2022-11-22T12:07:34.899Z,14.80
2022-11-22T12:10:04.897Z,17.97
2022-11-22T12:13:04.150Z,15.63
2022-11-22T12:15:42.570Z,17.67
2022-11-22T12:18:33.461Z,16.17
2022-11-22T12:21:17.976Z,17.27
2022-11-22T12:24:13.269Z,16.73
2022-11-22T12:26:44.382Z,17.13
2022-11-22T12:29:14.451Z,16.13
2022-11-22T12:31:50.166Z,17.07
2022-11-22T12:34:29.035Z,18.73
2022-11-22T12:37:01.737Z,17.83
2022-11-22T12:39:31.006Z,18.13
2022-11-22T12:42:11.100Z,16.27
2022-11-22T12:44:45.594Z,16.70
2022-11-22T12:47:20.884Z,18.73
2022-11-22T12:49:56.953Z,18.17
2022-11-22T12:52:27.310Z,19.10
2022-11-22T12:55:14.701Z,17.00
2022-11-22T12:57:52.469Z,17.50
2022-11-22T13:00:22.463Z,16.73
2022-11-22T13:02:58.955Z,17.67
2022-11-22T13:06:01.138Z,16.23
2022-11-22T13:08:34.984Z,18.30
2022-11-22T13:11:29.657Z,16.40
2022-11-22T13:14:04.023Z,17.47
2022-11-22T13:16:32.539Z,15.47
2022-11-22T13:19:04.349Z,15.70
2022-11-22T13:21:47.792Z,17.33
2022-11-22T13:24:40.344Z,16.37
2022-11-22T13:27:21.063Z,15.37
2022-11-22T13:29:53.763Z,17.53
2022-11-22T13:32:24.706Z,15.90
2022-11-22T13:35:02.831Z,15.83
2022-11-22T13:37:32.785Z,17.73
2022-11-22T13:40:31.481Z,15.30
2022-11-22T13:43:19.633Z,18.20
2022-11-22T13:45:58.307Z,16.87
2022-11-22T13:48:40.688Z,16.47
2022-11-22T13:51:12.996Z,16.63
2022-11-22T13:53:46.005Z,17.23
2022-11-22T13:56:16.196Z,17.57
2022-11-22T13:58:53.422Z,16.63
2022-11-22T14:01:49.358Z,17.70
2022-11-22T14:04:18.889Z,17.37
2022-11-22T14:06:54.570Z,17.27
2022-11-22T14:09:34.168Z,18.73
2022-11-22T14:12:10.940Z,17.53
2022-11-22T14:14:42.164Z,17.17
2022-11-22T14:17:40.255Z,17.10
2022-11-22T14:20:28.775Z,16.40
2022-11-22T14:23:08.601Z,17.53
2022-11-22T14:26:05.126Z,16.77
2022-11-22T14:28:58.192Z,16.40
2022-11-22T14:31:34.875Z,17.73
2022-11-22T14:34:34.550Z,17.90
2022-11-22T14:37:10.553Z,17.23
2022-11-22T14:39:55.739Z,17.43
2022-11-22T14:42:47.424Z,17.57
2022-11-22T14:45:31.488Z,16.63
2022-11-22T14:48:13.813Z,16.73
2022-11-22T14:50:46.531Z,17.70
2022-11-22T14:53:32.606Z,17.40
2022-11-22T14:56:13.004Z,18.07
2022-11-22T14:58:55.590Z,17.40
2022-11-22T15:01:47.041Z,17.00
2022-11-22T15:09:20.358Z,17.03
2022-11-22T15:09:22.472Z,17.43
2022-11-22T15:11:01.171Z,17.93
2022-11-22T15:13:40.081Z,16.40
2022-11-22T15:57:44.859Z,17.80
2022-11-22T16:00:28.982Z,18.83
2022-11-22T16:03:06.890Z,17.93
2022-11-22T16:06:06.253Z,18.33
2022-11-22T16:08:29.410Z,17.83
2022-11-22T16:11:00.176Z,18.10
2022-11-22T16:13:33.179Z,17.97
2022-11-22T16:16:14.118Z,18.10
2022-11-22T16:18:43.656Z,18.07
2022-11-22T16:21:13.583Z,18.43
2022-11-22T16:23:42.157Z,18.57
2022-11-22T16:26:19.433Z,18.10
2022-11-22T16:28:48.339Z,19.00
2022-11-22T16:31:23.302Z,18.63
2022-11-22T16:33:52.047Z,17.37
2022-11-22T16:36:21.919Z,19.37
2022-11-22T16:38:50.205Z,18.60
2022-11-22T16:41:23.632Z,18.70
2022-11-22T16:43:57.041Z,19.57
2022-11-22T16:46:23.828Z,17.80
2022-11-22T16:48:51.272Z,19.07
2022-11-22T16:51:30.931Z,18.07
2022-11-22T16:53:59.980Z,19.90
2022-11-22T16:56:30.151Z,18.43
2022-11-22T16:58:58.298Z,19.27
2022-11-22T17:01:31.064Z,18.10
2022-11-22T17:03:59.792Z,18.80
2022-11-22T17:06:32.399Z,18.97
2022-11-22T17:09:00.822Z,19.57
2022-11-22T17:11:31.771Z,17.90
2022-11-22T17:14:01.635Z,18.53
2022-11-22T17:16:29.378Z,18.77
2022-11-22T17:18:58.232Z,18.57
2022-11-22T17:21:34.487Z,19.83
2022-11-22T17:24:07.701Z,20.17
2022-11-22T17:26:34.961Z,18.43
2022-11-22T17:29:02.534Z,18.50
2022-11-22T17:31:29.742Z,19.23
2022-11-22T17:34:00.823Z,20.33
2022-11-22T17:36:46.946Z,19.50
2022-11-22T17:39:16.936Z,19.13
2022-11-22T17:41:51.221Z,18.80
2022-11-22T17:44:18.727Z,21.00
2022-11-22T17:46:47.379Z,20.57
2022-11-22T17:49:16.656Z,20.50
2022-11-22T17:51:44.346Z,19.10
2022-11-22T17:54:19.100Z,18.93
2022-11-22T17:56:47.290Z,19.63
2022-11-22T18:02:08.375Z,19.63
2022-11-22T18:04:35.574Z,20.83
2022-11-22T18:07:03.204Z,19.43
2022-11-22T18:09:32.690Z,19.83
2022-11-22T18:12:00.391Z,20.20
2022-11-22T18:14:28.452Z,19.57
2022-11-22T18:16:55.430Z,19.00
2022-11-22T18:19:24.455Z,19.60
2022-11-22T18:21:53.079Z,20.27
2022-11-22T18:24:21.586Z,21.33
2022-11-22T18:26:53.740Z,19.27
2022-11-22T18:32:10.180Z,19.90
2022-11-22T18:34:39.592Z,20.20
2022-11-22T18:37:07.265Z,18.40
2022-11-22T18:39:40.195Z,21.23
2022-11-22T18:42:15.523Z,27.07
2022-11-22T18:44:44.244Z,22.43
2022-11-22T18:47:11.678Z,22.03
2022-11-22T18:49:40.251Z,21.27
2022-11-22T18:52:10.702Z,22.43
2022-11-22T18:54:40.584Z,20.20
2022-11-22T18:57:08.382Z,23.63
2022-11-22T18:59:36.241Z,22.50
2022-11-22T19:02:05.177Z,21.97
2022-11-22T19:04:34.703Z,21.33
2022-11-22T19:07:01.971Z,21.77
2022-11-22T19:09:30.436Z,24.00
2022-11-22T19:11:59.600Z,22.57
2022-11-22T19:14:29.956Z,21.43
2022-11-22T19:16:57.869Z,19.27
2022-11-22T19:19:25.554Z,19.83
2022-11-22T19:23:05.005Z,21.70
2022-11-22T19:25:32.673Z,19.50
2022-11-22T19:28:05.819Z,21.33
2022-11-22T19:30:33.995Z,20.47
2022-11-22T19:33:01.953Z,20.43
2022-11-22T19:35:31.812Z,22.20
2022-11-22T19:37:59.249Z,22.03
2022-11-22T19:40:27.450Z,21.43
2022-11-22T19:42:54.476Z,23.73
2022-11-22T19:45:57.256Z,21.43
2022-11-22T19:48:23.205Z,25.65
2022-11-22T19:50:51.001Z,21.87
2022-11-22T19:53:18.530Z,20.83
2022-11-22T19:55:46.669Z,20.57
2022-11-22T19:58:14.224Z,19.63
2022-11-22T20:00:44.728Z,19.70
2022-11-22T20:03:14.317Z,21.17
2022-11-22T20:05:42.460Z,22.10
2022-11-22T20:08:10.285Z,20.77
2022-11-22T20:10:48.757Z,20.40
2022-11-22T20:13:16.213Z,21.10
2022-11-22T20:15:43.884Z,19.50
2022-11-22T20:18:11.368Z,21.13
2022-11-22T20:20:40.223Z,22.63
2022-11-22T20:23:07.673Z,21.47
2022-11-22T20:25:34.944Z,20.23
2022-11-22T20:28:02.098Z,22.83
2022-11-22T20:30:29.837Z,22.03
2022-11-22T20:32:57.156Z,21.63
2022-11-22T20:35:26.077Z,21.17
2022-11-22T20:37:54.870Z,23.37
2022-11-22T20:40:22.681Z,20.47
2022-11-22T20:42:51.215Z,20.53
2022-11-22T20:45:19.725Z,20.73
2022-11-22T20:47:47.240Z,20.40
2022-11-22T20:50:17.521Z,25.27
2022-11-22T20:52:45.832Z,26.63
2022-11-22T20:55:15.434Z,23.13
2022-11-22T20:57:43.347Z,22.40
2022-11-22T21:00:12.892Z,22.10
2022-11-22T21:02:40.461Z,21.43
2022-11-22T21:05:10.093Z,22.37
2022-11-22T21:07:37.150Z,20.20
2022-11-22T21:10:04.732Z,22.17
2022-11-22T21:12:32.182Z,23.23
2022-11-22T21:15:00.181Z,23.43
2022-11-22T21:17:45.646Z,20.73
2022-11-22T21:20:20.369Z,23.93
2022-11-22T21:22:55.003Z,25.93
2022-11-22T21:25:22.875Z,23.03
2022-11-22T21:27:50.376Z,23.80
2022-11-22T21:30:18.679Z,26.70
2022-11-22T21:32:46.416Z,27.17
2022-11-22T21:35:13.852Z,25.00
2022-11-22T21:37:45.422Z,23.47
2022-11-22T21:40:14.590Z,23.67
2022-11-22T21:42:42.238Z,23.53
2022-11-22T21:45:11.452Z,23.47
2022-11-22T21:47:39.216Z,22.47
2022-11-22T21:50:11.485Z,23.43
2022-11-22T21:52:40.427Z,23.30
2022-11-22T21:55:07.969Z,22.27
2022-11-22T21:57:35.519Z,22.50
2022-11-22T22:00:07.468Z,22.53
2022-11-22T22:02:35.722Z,21.63
2022-11-22T22:05:05.027Z,22.70
2022-11-22T22:07:52.057Z,22.93
2022-11-22T22:10:21.029Z,22.30
2022-11-22T22:12:52.682Z,20.73
2022-11-22T22:15:21.048Z,21.47
2022-11-22T22:17:50.272Z,21.07
2022-11-22T22:20:21.571Z,21.70
2022-11-22T22:22:56.832Z,23.00
2022-11-22T22:25:26.065Z,21.73
2022-11-22T22:27:57.089Z,21.70
2022-11-22T22:30:25.457Z,21.60
2022-11-22T22:32:52.705Z,23.00
2022-11-22T22:35:21.337Z,22.63
2022-11-22T22:37:50.145Z,22.17
2022-11-22T22:40:18.846Z,22.77
2022-11-22T22:42:50.261Z,22.23
2022-11-22T22:45:17.992Z,21.77
2022-11-22T22:47:45.836Z,23.30
2022-11-22T22:50:13.639Z,22.53
2022-11-22T22:52:41.928Z,22.53
2022-11-22T22:55:10.070Z,22.60
2022-11-22T22:57:37.745Z,24.13
2022-11-22T23:00:05.983Z,23.47
2022-11-22T23:02:35.262Z,23.07
2022-11-22T23:05:02.863Z,22.30
2022-11-22T23:07:32.393Z,23.30
2022-11-22T23:10:00.510Z,21.93
2022-11-22T23:12:31.826Z,23.43
2022-11-22T23:15:00.083Z,24.00
2022-11-22T23:17:28.769Z,23.47
2022-11-22T23:19:56.641Z,23.07
2022-11-22T23:22:26.129Z,23.87
2022-11-22T23:24:53.806Z,21.97
2022-11-22T23:27:21.508Z,21.50
2022-11-22T23:29:50.396Z,21.80
2022-11-22T23:32:18.165Z,22.07
2022-11-22T23:34:46.230Z,23.27
2022-11-22T23:37:14.085Z,23.07
2022-11-22T23:39:42.085Z,22.67
2022-11-22T23:42:10.537Z,22.93
2022-11-22T23:44:39.419Z,22.80
2022-11-22T23:47:07.355Z,22.37
2022-11-22T23:49:34.803Z,21.97
2022-11-22T23:52:02.322Z,22.67
2022-11-22T23:54:30.251Z,22.40
2022-11-22T23:56:58.137Z,23.33
2022-11-22T23:59:26.125Z,22.80
